Time;durP1;ratioP1;P1;durP2;ratioP2;P2;SDS_P1;SDS_P2;PMS_P1;PMS_P2;Temp;Humidity;BMP_temperature;BMP_pressure;BME280_temperature;BME280_humidity;BME280_pressure;Samples;Min_cycle;Max_cycle;Signal;HPM_P1;HPM_P2
2023/04/11 00:00:06;;;;;;;;;;;;;;;;;;5049624;28;19974;-59
2023/04/11 00:02:33;;;;;;;;;;;;;;;;;;5048977;28;20336;-59
2023/04/11 00:04:59;;;;;;;;;;;;;;;;;;5049236;28;19928;-58
2023/04/11 00:07:25;;;;;;;;;;;;;;;;;;5049436;28;19996;-60
2023/04/11 00:09:51;;;;;;;;;;;;;;;;;;5048731;28;19967;-60
2023/04/11 00:12:17;;;;;;;;;;;;;;;;;;5049221;28;20379;-60
2023/04/11 00:14:44;;;;;;;;;;;;;;;;;;5049573;28;19928;-59
2023/04/11 00:17:11;;;;;;;;;;;;;;;;;;5048507;28;20333;-59
2023/04/11 00:19:37;;;;;;;;;;;;;;;;;;5049419;28;19929;-58
2023/04/11 00:22:03;;;;;;;;;;;;;;;;;;5048787;28;19924;-58
2023/04/11 00:24:29;;;;;;;;;;;;;;;;;;5048902;28;19993;-59
2023/04/11 00:26:56;;;;;;;;;;;;;;;;;;5049238;28;19925;-59
2023/04/11 00:29:22;;;;;;;;;;;;;;;;;;5049007;28;19925;-59
2023/04/11 00:31:48;;;;;;;;;;;;;;;;;;5049390;28;20384;-58
2023/04/11 00:34:14;;;;;;;;;;;;;;;;;;5050147;28;19921;-58
2023/04/11 00:36:40;;;;;;;;;;;;;;;;;;5052873;28;19929;-59
2023/04/11 00:39:06;;;;;;;;;;;;;;;;;;5052977;28;20397;-59
2023/04/11 00:41:32;;;;;;;;;;;;;;;;;;5052261;28;19924;-59
2023/04/11 00:43:58;;;;;;;;;;;;;;;;;;5052987;28;19943;-58
2023/04/11 00:46:24;;;;;;;;;;;;;;;;;;5052779;28;19925;-58
2023/04/11 00:48:50;;;;;;;;;;;;;;;;;;5052319;28;19921;-58
2023/04/11 00:51:16;;;;;;;;;;;;;;;;;;5052613;28;19920;-59
2023/04/11 00:53:41;;;;;;;;;;;;;;;;;;5052456;28;20294;-59
2023/04/11 00:56:07;;;;;;;;;;;;;;;;;;5052233;28;19933;-59
2023/04/11 00:58:36;;;;;;;;;;;;;;;;;;5052818;28;20338;-58
2023/04/11 01:01:07;;;;;;;;;;;;;;;;;;5052671;28;19944;-58
2023/04/11 01:03:33;;;;;;;;;;;;;;;;;;5052102;28;19924;-59
2023/04/11 01:05:59;;;;;;;;;;;;;;;;;;5051994;28;20275;-59
2023/04/11 01:08:25;;;;;;;;;;;;;;;;;;5052505;28;20016;-59
2023/04/11 01:10:51;;;;;;;;;;;;;;;;;;5051855;28;19921;-59
2023/04/11 01:13:17;;;;;;;;;;;;;;;;;;5052460;28;19924;-59
2023/04/11 01:15:43;;;;;;;;;;;;;;;;;;5052460;28;19946;-58
2023/04/11 01:18:09;;;;;;;;;;;;;;;;;;5051798;28;20264;-57
2023/04/11 01:20:34;;;;;;;;;;;;;;;;;;5052312;28;19931;-58
2023/04/11 01:23:00;;;;;;;;;;;;;;;;;;5051901;28;19936;-58
2023/04/11 01:25:26;;;;;;;;;;;;;;;;;;5051184;28;19935;-59
2023/04/11 01:27:52;;;;;;;;;;;;;;;;;;5052415;28;19928;-58
2023/04/11 01:30:18;;;;;;;;;;;;;;;;;;5052055;28;20371;-59
2023/04/11 01:32:44;;;;;;;;;;;;;;;;;;5051406;28;19974;-58
2023/04/11 01:35:13;;;;;;;;;;;;;;;;;;5051813;28;19978;-59
2023/04/11 01:37:39;;;;;;;;;;;;;;;;;;5051726;28;19957;-59
2023/04/11 01:40:05;;;;;;;;;;;;;;;;;;5050854;28;19920;-59
2023/04/11 01:42:31;;;;;;;;;;;;;;;;;;5051823;28;19925;-59
2023/04/11 01:44:57;;;;;;;;;;;;;;;;;;5051382;28;19976;-59
2023/04/11 01:47:22;;;;;;;;;;;;;;;;;;5050669;28;20390;-59
2023/04/11 01:49:48;;;;;;;;;;;;;;;;;;5051925;28;19925;-58
2023/04/11 01:52:14;;;;;;;;;;;;;;;;;;5051707;28;20371;-59
2023/04/11 01:54:40;;;;;;;;;;;;;;;;;;5050986;28;19929;-60
2023/04/11 01:57:06;;;;;;;;;;;;;;;;;;5051632;28;20016;-58
2023/04/11 01:59:32;;;;;;;;;;;;;;;;;;5051478;28;19924;-58
2023/04/11 02:01:58;;;;;;;;;;;;;;;;;;5050640;28;20287;-57
2023/04/11 02:04:24;;;;;;;;;;;;;;;;;;5051284;28;20150;-58
2023/04/11 02:06:50;;;;;;;;;;;;;;;;;;5051356;28;20441;-58
2023/04/11 02:09:16;;;;;;;;;;;;;;;;;;5050822;28;19921;-59
2023/04/11 02:11:42;;;;;;;;;;;;;;;;;;5051276;28;19928;-59
2023/04/11 02:14:09;;;;;;;;;;;;;;;;;;5051401;28;19929;-59
2023/04/11 02:16:36;;;;;;;;;;;;;;;;;;5050702;28;19925;-58
2023/04/11 02:19:02;;;;;;;;;;;;;;;;;;5051198;28;20402;-57
2023/04/11 02:21:28;;;;;;;;;;;;;;;;;;5050997;28;19921;-58
2023/04/11 02:23:54;;;;;;;;;;;;;;;;;;5050184;28;20291;-59
2023/04/11 02:26:20;;;;;;;;;;;;;;;;;;5050745;28;20051;-58
2023/04/11 02:28:46;;;;;;;;;;;;;;;;;;5051087;28;20328;-58
2023/04/11 02:31:12;;;;;;;;;;;;;;;;;;5050308;28;19931;-57
2023/04/11 02:33:38;;;;;;;;;;;;;;;;;;5050655;28;19929;-58
2023/04/11 02:36:03;;;;;;;;;;;;;;;;;;5050607;28;20074;-58
2023/04/11 02:38:29;;;;;;;;;;;;;;;;;;5050272;28;20420;-61
2023/04/11 02:40:55;;;;;;;;;;;;;;;;;;5050679;28;19924;-59
2023/04/11 02:43:21;;;;;;;;;;;;;;;;;;5050605;28;19928;-59
2023/04/11 02:45:47;;;;;;;;;;;;;;;;;;5050127;28;19943;-59
2023/04/11 02:48:13;;;;;;;;;;;;;;;;;;5050274;28;19925;-58
2023/04/11 02:50:39;;;;;;;;;;;;;;;;;;5050459;28;19947;-59
2023/04/11 02:53:06;;;;;;;;;;;;;;;;;;5049826;28;19921;-59
2023/04/11 02:55:32;;;;;;;;;;;;;;;;;;5050486;28;19921;-59
2023/04/11 02:57:58;;;;;;;;;;;;;;;;;;5050449;28;19931;-58
2023/04/11 03:00:25;;;;;;;;;;;;;;;;;;5049593;28;19921;-58
2023/04/11 03:02:50;;;;;;;;;;;;;;;;;;5050256;28;19925;-58
2023/04/11 03:05:16;;;;;;;;;;;;;;;;;;5049723;28;20294;-58
2023/04/11 03:07:45;;;;;;;;;;;;;;;;;;5049674;28;19924;-59
2023/04/11 03:10:11;;;;;;;;;;;;;;;;;;5082009;28;19975;-59
2023/04/11 03:12:37;;;;;;;;;;;;;;;;;;5050238;28;19929;-59
2023/04/11 03:15:03;;;;;;;;;;;;;;;;;;5049344;28;20470;-59
2023/04/11 03:17:29;;;;;;;;;;;;;;;;;;5050275;28;20355;-59
2023/04/11 03:19:55;;;;;;;;;;;;;;;;;;5049875;28;20023;-59
2023/04/11 03:22:22;;;;;;;;;;;;;;;;;;5049106;28;20021;-58
2023/04/11 03:24:48;;;;;;;;;;;;;;;;;;5049442;28;19925;-59
2023/04/11 03:27:14;;;;;;;;;;;;;;;;;;5049812;28;19931;-59
2023/04/11 03:29:42;;;;;;;;;;;;;;;;;;5048495;28;21376;-59
2023/04/11 03:32:08;;;;;;;;;;;;;;;;;;5050112;28;19929;-59
2023/04/11 03:34:34;;;;;;;;;;;;;;;;;;5049723;28;19925;-59
2023/04/11 03:37:00;;;;;;;;;;;;;;;;;;5049165;28;19924;-59
2023/04/11 03:39:26;;;;;;;;;;;;;;;;;;5049732;28;19921;-59
2023/04/11 03:41:52;;;;;;;;;;;;;;;;;;5049594;28;19972;-59
2023/04/11 03:44:18;;;;;;;;;;;;;;;;;;5049088;28;19979;-59
2023/04/11 03:46:44;;;;;;;;;;;;;;;;;;5049731;28;20370;-59
2023/04/11 03:49:10;;;;;;;;;;;;;;;;;;5049520;28;19925;-59
2023/04/11 03:51:35;;;;;;;;;;;;;;;;;;5049253;28;19927;-58
2023/04/11 03:54:01;;;;;;;;;;;;;;;;;;5048972;28;19924;-59
2023/04/11 03:56:27;;;;;;;;;;;;;;;;;;5049604;28;20272;-59
2023/04/11 03:58:53;;;;;;;;;;;;;;;;;;5049779;28;19920;-58
2023/04/11 04:01:19;;;;;;;;;;;;;;;;;;5048962;28;20024;-59
2023/04/11 04:03:45;;;;;;;;;;;;;;;;;;5049482;28;19929;-58
2023/04/11 04:06:11;;;;;;;;;;;;;;;;;;5049413;28;20241;-59
2023/04/11 04:08:37;;;;;;;;;;;;;;;;;;5049114;28;19936;-60
2023/04/11 04:11:03;;;;;;;;;;;;;;;;;;5053162;28;20011;-59
2023/04/11 04:13:28;;;;;;;;;;;;;;;;;;5085545;28;19920;-58
2023/04/11 04:15:54;;;;;;;;;;;;;;;;;;5052553;28;19928;-59
2023/04/11 04:18:20;;;;;;;;;;;;;;;;;;5053410;28;19924;-58
2023/04/11 04:20:46;;;;;;;;;;;;;;;;;;5053248;28;19924;-59
2023/04/11 04:23:16;;;;;;;;;;;;;;;;;;5052331;28;20291;-58
2023/04/11 04:25:42;;;;;;;;;;;;;;;;;;5052831;28;19928;-60
2023/04/11 04:28:08;;;;;;;;;;;;;;;;;;5053200;28;20440;-59
2023/04/11 04:30:36;;;;;;;;;;;;;;;;;;5052510;28;19928;-59
2023/04/11 04:33:02;;;;;;;;;;;;;;;;;;5052799;28;19995;-59
2023/04/11 04:35:28;;;;;;;;;;;;;;;;;;5053300;28;19971;-59
2023/04/11 04:37:54;;;;;;;;;;;;;;;;;;5052346;28;20222;-58
2023/04/11 04:40:21;;;;;;;;;;;;;;;;;;5052753;28;20290;-60
2023/04/11 04:42:57;;;;;;;;;;;;;;;;;;5052888;28;19963;-59
2023/04/11 04:45:23;;;;;;;;;;;;;;;;;;5052158;28;19925;-58
2023/04/11 04:47:48;;;;;;;;;;;;;;;;;;5052931;28;19929;-58
2023/04/11 04:50:15;;;;;;;;;;;;;;;;;;5052843;28;19931;-59
2023/04/11 04:52:41;;;;;;;;;;;;;;;;;;5052155;28;20395;-58
2023/04/11 04:55:06;;;;;;;;;;;;;;;;;;5052744;28;19921;-59
2023/04/11 04:57:32;;;;;;;;;;;;;;;;;;5052755;28;19921;-59
2023/04/11 04:59:58;;;;;;;;;;;;;;;;;;5036438;28;20302;-58
2023/04/11 05:02:25;;;;;;;;;;;;;;;;;;5051727;28;19921;-58
2023/04/11 05:04:52;;;;;;;;;;;;;;;;;;5051883;28;19928;-60
2023/04/11 05:07:19;;;;;;;;;;;;;;;;;;5051155;28;19924;-60
2023/04/11 05:09:45;;;;;;;;;;;;;;;;;;5052447;28;20382;-59
2023/04/11 05:12:12;;;;;;;;;;;;;;;;;;5051739;28;19924;-60
2023/04/11 05:14:38;;;;;;;;;;;;;;;;;;5051123;28;19932;-60
2023/04/11 05:17:04;;;;;;;;;;;;;;;;;;5052181;28;19921;-59
2023/04/11 05:19:31;;;;;;;;;;;;;;;;;;5052040;28;20436;-59
2023/04/11 05:21:57;;;;;;;;;;;;;;;;;;5049930;28;19999;-58
2023/04/11 05:24:22;;;;;;;;;;;;;;;;;;5051594;28;19925;-59
2023/04/11 05:26:48;;;;;;;;;;;;;;;;;;5051996;28;19924;-59
2023/04/11 05:29:15;;;;;;;;;;;;;;;;;;5051098;28;20395;-60
2023/04/11 05:31:41;;;;;;;;;;;;;;;;;;5051226;28;19929;-59
2023/04/11 05:34:06;;;;;;;;;;;;;;;;;;5051905;28;20212;-60
2023/04/11 05:36:32;;;;;;;;;;;;;;;;;;5050996;28;19920;-60
2023/04/11 05:38:58;;;;;;;;;;;;;;;;;;5051763;28;20339;-59
2023/04/11 05:41:24;;;;;;;;;;;;;;;;;;5051180;28;19924;-60
2023/04/11 05:43:50;;;;;;;;;;;;;;;;;;5050977;28;20468;-60
2023/04/11 05:46:16;;;;;;;;;;;;;;;;;;5051149;28;20406;-59
2023/04/11 05:48:42;;;;;;;;;;;;;;;;;;5051366;28;19920;-58
2023/04/11 05:51:08;;;;;;;;;;;;;;;;;;5050699;28;19924;-60
2023/04/11 05:53:34;;;;;;;;;;;;;;;;;;5051710;28;19920;-59
2023/04/11 05:56:00;;;;;;;;;;;;;;;;;;5051172;28;20432;-58
2023/04/11 05:58:26;;;;;;;;;;;;;;;;;;5049744;28;19932;-58
2023/04/11 06:00:52;;;;;;;;;;;;;;;;;;5050616;28;19925;-59
2023/04/11 06:03:18;;;;;;;;;;;;;;;;;;5050981;28;19928;-59
2023/04/11 06:05:44;;;;;;;;;;;;;;;;;;5050659;28;20391;-58
2023/04/11 06:08:11;;;;;;;;;;;;;;;;;;5050998;28;20019;-59
2023/04/11 06:10:36;;;;;;;;;;;;;;;;;;5051077;28;19920;-60
2023/04/11 06:13:02;;;;;;;;;;;;;;;;;;5049129;28;19932;-60
2023/04/11 06:15:28;;;;;;;;;;;;;;;;;;5051575;28;20302;-60
2023/04/11 06:17:54;;;;;;;;;;;;;;;;;;5051096;28;19974;-60
2023/04/11 06:20:20;;;;;;;;;;;;;;;;;;5050858;28;20010;-60
2023/04/11 06:22:50;;;;;;;;;;;;;;;;;;5051236;28;19974;-59
2023/04/11 06:25:15;;;;;;;;;;;;;;;;;;5050354;28;20019;-60
2023/04/11 06:27:41;;;;;;;;;;;;;;;;;;5050252;28;20007;-61
2023/04/11 06:30:08;;;;;;;;;;;;;;;;;;5050492;28;19925;-60
2023/04/11 06:32:34;;;;;;;;;;;;;;;;;;5049514;28;20276;-60
2023/04/11 06:35:00;;;;;;;;;;;;;;;;;;5051103;28;19932;-61
2023/04/11 06:37:26;;;;;;;;;;;;;;;;;;5051559;28;19920;-61
2023/04/11 06:39:52;;;;;;;;;;;;;;;;;;5050925;28;20144;-60
2023/04/11 06:42:18;;;;;;;;;;;;;;;;;;5008066;28;19932;-61
2023/04/11 06:44:44;;;;;;;;;;;;;;;;;;5035755;28;19979;-62
2023/04/11 06:47:10;;;;;;;;;;;;;;;;;;5051414;28;19986;-61
2023/04/11 06:49:36;;;;;;;;;;;;;;;;;;5049849;28;20180;-62
2023/04/11 06:52:02;;;;;;;;;;;;;;;;;;5048072;28;19925;-62
2023/04/11 06:54:28;;;;;;;;;;;;;;;;;;5043545;28;19924;-62
2023/04/11 06:56:56;;;;;;;;;;;;;;;;;;5047449;28;19954;-62
2023/04/11 06:59:21;;;;;;;;;;;;;;;;;;5050575;28;20008;-62
2023/04/11 07:01:47;;;;;;;;;;;;;;;;;;5049629;28;20020;-61
2023/04/11 07:04:13;;;;;;;;;;;;;;;;;;5049648;28;19971;-61
2023/04/11 07:06:39;;;;;;;;;;;;;;;;;;5045423;28;19925;-59
2023/04/11 07:09:08;;;;;;;;;;;;;;;;;;5049816;28;19928;-61
2023/04/11 07:11:34;;;;;;;;;;;;;;;;;;5049689;28;19921;-61
2023/04/11 07:14:00;;;;;;;;;;;;;;;;;;5050255;28;19925;-60
2023/04/11 07:16:26;;;;;;;;;;;;;;;;;;5049785;28;19966;-62
2023/04/11 07:18:52;;;;;;;;;;;;;;;;;;5049968;28;19929;-61
2023/04/11 07:21:18;;;;;;;;;;;;;;;;;;5044896;28;19937;-61
2023/04/11 07:23:44;;;;;;;;;;;;;;;;;;5049708;28;19935;-61
2023/04/11 07:26:10;;;;;;;;;;;;;;;;;;5049907;28;19925;-62
2023/04/11 07:28:37;;;;;;;;;;;;;;;;;;5049168;28;20295;-61
2023/04/11 07:31:06;;;;;;;;;;;;;;;;;;5049782;28;19947;-61
2023/04/11 07:33:32;;;;;;;;;;;;;;;;;;5049382;28;20002;-62
2023/04/11 07:35:58;;;;;;;;;;;;;;;;;;5049656;28;20018;-61
2023/04/11 07:38:30;;;;;;;;;;;;;;;;;;5049304;28;19986;-62
2023/04/11 07:40:56;;;;;;;;;;;;;;;;;;5049219;28;20286;-60
2023/04/11 07:43:22;;;;;;;;;;;;;;;;;;5048340;28;19921;-61
2023/04/11 07:45:48;;;;;;;;;;;;;;;;;;5050002;28;20019;-62
2023/04/11 07:48:14;;;;;;;;;;;;;;;;;;5049611;28;19943;-61
2023/04/11 07:50:40;;;;;;;;;;;;;;;;;;5049504;28;19925;-60
2023/04/11 07:53:06;;;;;;;;;;;;;;;;;;5049075;28;19986;-61
2023/04/11 07:55:32;;;;;;;;;;;;;;;;;;5048939;28;19931;-62
2023/04/11 07:57:58;;;;;;;;;;;;;;;;;;5048942;28;19929;-61
2023/04/11 08:00:24;;;;;;;;;;;;;;;;;;5049690;28;19921;-59
2023/04/11 08:02:51;;;;;;;;;;;;;;;;;;5049238;28;19931;-59
2023/04/11 08:05:17;;;;;;;;;;;;;;;;;;5049083;28;20302;-60
2023/04/11 08:07:43;;;;;;;;;;;;;;;;;;5049756;28;19924;-61
2023/04/11 08:10:09;;;;;;;;;;;;;;;;;;5049818;28;20396;-61
2023/04/11 08:12:35;;;;;;;;;;;;;;;;;;5048205;28;19921;-62
2023/04/11 08:15:01;;;;;;;;;;;;;;;;;;5049877;28;19925;-61
2023/04/11 08:17:27;;;;;;;;;;;;;;;;;;5049592;28;19986;-61
2023/04/11 08:19:53;;;;;;;;;;;;;;;;;;5047903;28;19944;-61
2023/04/11 08:22:19;;;;;;;;;;;;;;;;;;5046628;28;19925;-61
2023/04/11 08:24:45;;;;;;;;;;;;;;;;;;5047136;28;19994;-63
2023/04/11 08:27:11;;;;;;;;;;;;;;;;;;5045545;28;19964;-63
2023/04/11 08:29:37;;;;;;;;;;;;;;;;;;5045614;28;20968;-66
2023/04/11 08:32:03;;;;;;;;;;;;;;;;;;5039055;28;19921;-66
2023/04/11 08:34:29;;;;;;;;;;;;;;;;;;5044355;28;19925;-67
2023/04/11 08:36:55;;;;;;;;;;;;;;;;;;5051027;28;19927;-66
2023/04/11 08:39:21;;;;;;;;;;;;;;;;;;5039948;28;20040;-66
2023/04/11 08:41:47;;;;;;;;;;;;;;;;;;5028813;28;19947;-66
2023/04/11 08:44:13;;;;;;;;;;;;;;;;;;5049030;28;19921;-65
2023/04/11 08:46:39;;;;;;;;;;;;;;;;;;5048779;28;19925;-66
2023/04/11 08:49:05;;;;;;;;;;;;;;;;;;5047591;28;19978;-65
2023/04/11 08:51:31;;;;;;;;;;;;;;;;;;5047361;28;19972;-64
2023/04/11 08:53:58;;;;;;;;;;;;;;;;;;5041711;28;20062;-65
2023/04/11 08:56:24;;;;;;;;;;;;;;;;;;5048654;28;19937;-67
2023/04/11 08:58:50;;;;;;;;;;;;;;;;;;5053065;28;19931;-67
2023/04/11 09:01:16;;;;;;;;;;;;;;;;;;5048532;28;20458;-66
2023/04/11 09:03:42;;;;;;;;;;;;;;;;;;5044563;28;19925;-65
2023/04/11 09:06:09;;;;;;;;;;;;;;;;;;5051708;28;19928;-65
2023/04/11 09:08:35;;;;;;;;;;;;;;;;;;5052836;28;19987;-65
2023/04/11 09:11:00;;;;;;;;;;;;;;;;;;5052142;28;19931;-66
2023/04/11 09:13:26;;;;;;;;;;;;;;;;;;5055696;28;19924;-65
2023/04/11 09:15:52;;;;;;;;;;;;;;;;;;5051096;28;20008;-64
2023/04/11 09:18:18;;;;;;;;;;;;;;;;;;5050078;28;20000;-64
2023/04/11 09:20:44;;;;;;;;;;;;;;;;;;5051594;28;19943;-65
2023/04/11 09:23:10;;;;;;;;;;;;;;;;;;5050948;28;19933;-65
2023/04/11 09:25:36;;;;;;;;;;;;;;;;;;5050990;28;19947;-66
2023/04/11 09:28:02;;;;;;;;;;;;;;;;;;5046513;28;19951;-64
2023/04/11 09:30:28;;;;;;;;;;;;;;;;;;5072020;28;19929;-64
2023/04/11 09:32:54;;;;;;;;;;;;;;;;;;5049724;28;19924;-65
2023/04/11 09:35:24;;;;;;;;;;;;;;;;;;5048722;28;19931;-66
2023/04/11 09:37:50;;;;;;;;;;;;;;;;;;5046380;28;20435;-64
2023/04/11 09:40:16;;;;;;;;;;;;;;;;;;5053457;28;20011;-66
2023/04/11 09:42:42;;;;;;;;;;;;;;;;;;5051188;28;20053;-66
2023/04/11 09:45:08;;;;;;;;;;;;;;;;;;5077507;28;19940;-66
2023/04/11 09:47:34;;;;;;;;;;;;;;;;;;5043578;28;19928;-66
2023/04/11 09:50:00;;;;;;;;;;;;;;;;;;5050934;28;19925;-68
2023/04/11 09:52:26;;;;;;;;;;;;;;;;;;5044515;28;19943;-67
2023/04/11 09:54:52;;;;;;;;;;;;;;;;;;5048296;28;19928;-66
2023/04/11 09:57:18;;;;;;;;;;;;;;;;;;5051409;28;19935;-66
2023/04/11 09:59:44;;;;;;;;;;;;;;;;;;5051484;28;19925;-66
2023/04/11 10:02:10;;;;;;;;;;;;;;;;;;5049254;28;19928;-66
2023/04/11 10:04:37;;;;;;;;;;;;;;;;;;5050229;28;19931;-67
2023/04/11 10:07:03;;;;;;;;;;;;;;;;;;5050363;28;19925;-66
2023/04/11 10:09:30;;;;;;;;;;;;;;;;;;5050136;28;19932;-65
2023/04/11 10:11:56;;;;;;;;;;;;;;;;;;5051592;28;20015;-66
2023/04/11 10:14:22;;;;;;;;;;;;;;;;;;5048715;28;20375;-65
2023/04/11 10:16:48;;;;;;;;;;;;;;;;;;5052746;28;19935;-65
2023/04/11 10:19:15;;;;;;;;;;;;;;;;;;5051020;28;19921;-66
2023/04/11 10:21:41;;;;;;;;;;;;;;;;;;5050662;28;19929;-66
2023/04/11 10:24:10;;;;;;;;;;;;;;;;;;5051274;28;19927;-65
2023/04/11 10:26:36;;;;;;;;;;;;;;;;;;5046568;28;19975;-66
2023/04/11 10:29:02;;;;;;;;;;;;;;;;;;5049039;28;19975;-65
2023/04/11 10:31:28;;;;;;;;;;;;;;;;;;5049912;28;19928;-66
2023/04/11 10:33:54;;;;;;;;;;;;;;;;;;5050121;28;19921;-65
2023/04/11 10:36:20;;;;;;;;;;;;;;;;;;5051128;28;20030;-67
2023/04/11 10:38:46;;;;;;;;;;;;;;;;;;5049910;28;19920;-66
2023/04/11 10:41:12;;;;;;;;;;;;;;;;;;5050259;28;19921;-67
2023/04/11 10:43:39;;;;;;;;;;;;;;;;;;5052025;28;19928;-67
2023/04/11 10:46:05;;;;;;;;;;;;;;;;;;5050371;28;20050;-68
2023/04/11 10:48:31;;;;;;;;;;;;;;;;;;5050692;28;19925;-67
2023/04/11 10:50:57;;;;;;;;;;;;;;;;;;5050879;28;19943;-67
2023/04/11 10:53:23;;;;;;;;;;;;;;;;;;5049790;28;19924;-67
2023/04/11 10:55:49;;;;;;;;;;;;;;;;;;5049461;28;19936;-67
2023/04/11 10:58:21;;;;;;;;;;;;;;;;;;5049745;28;19925;-65
2023/04/11 11:00:50;;;;;;;;;;;;;;;;;;5050372;28;19944;-65
2023/04/11 11:03:17;;;;;;;;;;;;;;;;;;5049725;28;19978;-66
2023/04/11 11:05:46;;;;;;;;;;;;;;;;;;5050391;28;20303;-66
2023/04/11 11:08:11;;;;;;;;;;;;;;;;;;5051465;28;19921;-65
2023/04/11 11:10:37;;;;;;;;;;;;;;;;;;5048635;28;19929;-65
2023/04/11 11:13:03;;;;;;;;;;;;;;;;;;5050104;28;19943;-65
2023/04/11 11:15:29;;;;;;;;;;;;;;;;;;5050755;28;19969;-65
2023/04/11 11:17:55;;;;;;;;;;;;;;;;;;5049266;28;20248;-65
2023/04/11 11:20:22;;;;;;;;;;;;;;;;;;5050532;28;20004;-65
2023/04/11 11:22:47;;;;;;;;;;;;;;;;;;5052221;28;19936;-65
2023/04/11 11:25:13;;;;;;;;;;;;;;;;;;5075415;28;19928;-64
2023/04/11 11:27:39;;;;;;;;;;;;;;;;;;5050038;28;20319;-65
2023/04/11 11:30:05;;;;;;;;;;;;;;;;;;5049967;28;19925;-64
2023/04/11 11:32:31;;;;;;;;;;;;;;;;;;5049117;28;19924;-63
2023/04/11 11:34:57;;;;;;;;;;;;;;;;;;5045422;28;19963;-66
2023/04/11 11:37:23;;;;;;;;;;;;;;;;;;5081804;28;19931;-65
2023/04/11 11:39:49;;;;;;;;;;;;;;;;;;5047366;28;19924;-66
2023/04/11 11:42:15;;;;;;;;;;;;;;;;;;5075856;28;19924;-67
2023/04/11 11:44:41;;;;;;;;;;;;;;;;;;5043597;28;19925;-66
2023/04/11 11:47:16;;;;;;;;;;;;;;;;;;5045844;28;19943;-66
2023/04/11 11:49:43;;;;;;;;;;;;;;;;;;5043055;28;20009;-66
2023/04/11 11:52:09;;;;;;;;;;;;;;;;;;5054978;28;19950;-66
2023/04/11 11:54:35;;;;;;;;;;;;;;;;;;5047511;28;20399;-65
2023/04/11 11:57:01;;;;;;;;;;;;;;;;;;5046637;28;19924;-66
2023/04/11 11:59:26;;;;;;;;;;;;;;;;;;5048525;28;19986;-66
2023/04/11 12:01:52;;;;;;;;;;;;;;;;;;5048780;28;19925;-65
2023/04/11 12:04:18;;;;;;;;;;;;;;;;;;5051090;28;19931;-64
2023/04/11 12:06:44;;;;;;;;;;;;;;;;;;5048928;28;19928;-65
2023/04/11 12:09:11;;;;;;;;;;;;;;;;;;5049090;28;19987;-65
2023/04/11 12:11:37;;;;;;;;;;;;;;;;;;5049804;28;19921;-64
2023/04/11 12:14:03;;;;;;;;;;;;;;;;;;5049125;28;20309;-65
2023/04/11 12:16:29;;;;;;;;;;;;;;;;;;5049274;28;19971;-65
2023/04/11 12:18:55;;;;;;;;;;;;;;;;;;5048930;28;19921;-65
2023/04/11 12:21:21;;;;;;;;;;;;;;;;;;5048973;28;19932;-66
2023/04/11 12:23:47;;;;;;;;;;;;;;;;;;5047411;28;19925;-66
2023/04/11 12:26:13;;;;;;;;;;;;;;;;;;5049153;28;20697;-65
2023/04/11 12:28:39;;;;;;;;;;;;;;;;;;5047139;28;20016;-65
2023/04/11 12:31:05;;;;;;;;;;;;;;;;;;5047786;28;19921;-65
2023/04/11 12:33:31;;;;;;;;;;;;;;;;;;5048055;28;19931;-65
2023/04/11 12:35:57;;;;;;;;;;;;;;;;;;5051865;28;20024;-66
2023/04/11 12:38:23;;;;;;;;;;;;;;;;;;5052112;28;20019;-65
2023/04/11 12:40:50;;;;;;;;;;;;;;;;;;5047453;28;19929;-66
2023/04/11 12:43:16;;;;;;;;;;;;;;;;;;5080816;28;20346;-65
2023/04/11 12:45:41;;;;;;;;;;;;;;;;;;5050023;28;19928;-65
2023/04/11 12:48:07;;;;;;;;;;;;;;;;;;5048922;28;19921;-65
2023/04/11 12:50:34;;;;;;;;;;;;;;;;;;5050835;28;19993;-66
2023/04/11 12:53:00;;;;;;;;;;;;;;;;;;5049155;28;19960;-63
2023/04/11 12:55:27;;;;;;;;;;;;;;;;;;5053360;28;20000;-61
2023/04/11 12:57:53;;;;;;;;;;;;;;;;;;5052422;28;20031;-63
2023/04/11 13:00:19;;;;;;;;;;;;;;;;;;5050016;28;20008;-60
2023/04/11 13:02:45;;;;;;;;;;;;;;;;;;5052543;28;19921;-61
2023/04/11 13:05:12;;;;;;;;;;;;;;;;;;5044405;28;20402;-62
2023/04/11 13:07:38;;;;;;;;;;;;;;;;;;5052512;28;19925;-61
2023/04/11 13:10:04;;;;;;;;;;;;;;;;;;5052710;28;19921;-61
2023/04/11 13:12:30;;;;;;;;;;;;;;;;;;5051881;28;19932;-61
2023/04/11 13:14:56;;;;;;;;;;;;;;;;;;5051095;28;19978;-61
2023/04/11 13:17:22;;;;;;;;;;;;;;;;;;5051575;28;19924;-61
2023/04/11 13:19:48;;;;;;;;;;;;;;;;;;5052472;28;19924;-61
2023/04/11 13:22:14;;;;;;;;;;;;;;;;;;5052121;28;19932;-60
2023/04/11 13:24:40;;;;;;;;;;;;;;;;;;5052941;28;19921;-61
2023/04/11 13:27:06;;;;;;;;;;;;;;;;;;5051104;28;19921;-60
2023/04/11 13:29:32;;;;;;;;;;;;;;;;;;5052164;28;19932;-61
2023/04/11 13:31:58;;;;;;;;;;;;;;;;;;5053288;28;19948;-61
2023/04/11 13:34:24;;;;;;;;;;;;;;;;;;5052772;28;19974;-61
2023/04/11 13:36:50;;;;;;;;;;;;;;;;;;5052176;28;19924;-61
2023/04/11 13:39:16;;;;;;;;;;;;;;;;;;5052702;28;19921;-61
2023/04/11 13:41:42;;;;;;;;;;;;;;;;;;5051181;28;19929;-61
2023/04/11 13:44:08;;;;;;;;;;;;;;;;;;5052099;28;19931;-61
2023/04/11 13:46:34;;;;;;;;;;;;;;;;;;5052135;28;19925;-61
2023/04/11 13:49:00;;;;;;;;;;;;;;;;;;5052559;28;20123;-61
2023/04/11 13:51:26;;;;;;;;;;;;;;;;;;5051573;28;20023;-60
2023/04/11 13:53:52;;;;;;;;;;;;;;;;;;5050639;28;20041;-60
2023/04/11 13:56:20;;;;;;;;;;;;;;;;;;5052476;28;20059;-61
2023/04/11 13:58:46;;;;;;;;;;;;;;;;;;5051445;28;20027;-62
2023/04/11 14:01:12;;;;;;;;;;;;;;;;;;5052579;28;20037;-62
2023/04/11 14:03:41;;;;;;;;;;;;;;;;;;5051790;28;19932;-61
2023/04/11 14:06:07;;;;;;;;;;;;;;;;;;5051652;28;19979;-62
2023/04/11 14:08:33;;;;;;;;;;;;;;;;;;5052513;28;19983;-61
2023/04/11 14:11:00;;;;;;;;;;;;;;;;;;5052225;28;20607;-60
2023/04/11 14:13:26;;;;;;;;;;;;;;;;;;5051294;28;19921;-61
2023/04/11 14:15:52;;;;;;;;;;;;;;;;;;5052199;28;19974;-62
2023/04/11 14:18:18;;;;;;;;;;;;;;;;;;5052144;28;19931;-62
2023/04/11 14:20:44;;;;;;;;;;;;;;;;;;5051656;28;20307;-62
2023/04/11 14:23:10;;;;;;;;;;;;;;;;;;5048295;28;19925;-60
2023/04/11 14:25:36;;;;;;;;;;;;;;;;;;5084009;28;20398;-60
2023/04/11 14:28:02;;;;;;;;;;;;;;;;;;5052263;28;20011;-60
2023/04/11 14:30:28;;;;;;;;;;;;;;;;;;5051459;28;19982;-59
2023/04/11 14:32:54;;;;;;;;;;;;;;;;;;5052066;28;19921;-59
2023/04/11 14:35:20;;;;;;;;;;;;;;;;;;5052187;28;19972;-59
2023/04/11 14:37:47;;;;;;;;;;;;;;;;;;5051494;28;20399;-59
2023/04/11 14:40:13;;;;;;;;;;;;;;;;;;5052056;28;19921;-60
2023/04/11 14:42:39;;;;;;;;;;;;;;;;;;5052197;28;20389;-60
2023/04/11 14:45:05;;;;;;;;;;;;;;;;;;5051429;28;19967;-60
2023/04/11 14:47:31;;;;;;;;;;;;;;;;;;5051899;28;20318;-60
2023/04/11 14:49:57;;;;;;;;;;;;;;;;;;5051606;28;19986;-60
2023/04/11 14:52:23;;;;;;;;;;;;;;;;;;5050680;28;19920;-59
2023/04/11 14:54:49;;;;;;;;;;;;;;;;;;5051793;28;19935;-60
2023/04/11 14:57:15;;;;;;;;;;;;;;;;;;5051990;28;19920;-60
2023/04/11 14:59:44;;;;;;;;;;;;;;;;;;5051100;28;19928;-60
2023/04/11 15:02:10;;;;;;;;;;;;;;;;;;5050607;28;19920;-60
2023/04/11 15:04:36;;;;;;;;;;;;;;;;;;5051587;28;19920;-60
2023/04/11 15:07:03;;;;;;;;;;;;;;;;;;5051054;28;20058;-60
2023/04/11 15:09:29;;;;;;;;;;;;;;;;;;5051779;28;19999;-59
2023/04/11 15:11:55;;;;;;;;;;;;;;;;;;5051526;28;20047;-60
2023/04/11 15:14:28;;;;;;;;;;;;;;;;;;5050960;28;19921;-59
2023/04/11 15:16:54;;;;;;;;;;;;;;;;;;5051520;28;19924;-59
2023/04/11 15:19:19;;;;;;;;;;;;;;;;;;5051561;28;19928;-59
2023/04/11 15:21:45;;;;;;;;;;;;;;;;;;5082360;28;19921;-59
2023/04/11 15:24:11;;;;;;;;;;;;;;;;;;5051499;28;19921;-58
2023/04/11 15:26:37;;;;;;;;;;;;;;;;;;5051202;28;20502;-59
2023/04/11 15:29:03;;;;;;;;;;;;;;;;;;5049586;28;19933;-59
2023/04/11 15:31:30;;;;;;;;;;;;;;;;;;5050905;28;19924;-59
2023/04/11 15:34:00;;;;;;;;;;;;;;;;;;5050664;28;20106;-59
2023/04/11 15:36:27;;;;;;;;;;;;;;;;;;5050493;28;19931;-59
2023/04/11 15:38:53;;;;;;;;;;;;;;;;;;5050857;28;19925;-59
2023/04/11 15:41:19;;;;;;;;;;;;;;;;;;5050785;28;19921;-59
2023/04/11 15:43:45;;;;;;;;;;;;;;;;;;5050577;28;19921;-59
2023/04/11 15:46:11;;;;;;;;;;;;;;;;;;5051057;28;20378;-59
2023/04/11 15:48:37;;;;;;;;;;;;;;;;;;5051052;28;20007;-59
2023/04/11 15:51:03;;;;;;;;;;;;;;;;;;5050283;28;19951;-58
2023/04/11 15:53:29;;;;;;;;;;;;;;;;;;5051060;28;19948;-59
2023/04/11 15:55:55;;;;;;;;;;;;;;;;;;5050852;28;19928;-59
2023/04/11 15:58:21;;;;;;;;;;;;;;;;;;5050363;28;19932;-59
2023/04/11 16:00:47;;;;;;;;;;;;;;;;;;5050978;28;19925;-59
2023/04/11 16:03:15;;;;;;;;;;;;;;;;;;5050958;28;20533;-59
2023/04/11 16:05:41;;;;;;;;;;;;;;;;;;5052692;28;20019;-59
2023/04/11 16:08:07;;;;;;;;;;;;;;;;;;5055278;28;19920;-59
2023/04/11 16:10:33;;;;;;;;;;;;;;;;;;5054972;28;19971;-59
2023/04/11 16:12:59;;;;;;;;;;;;;;;;;;5054470;28;19927;-59
2023/04/11 16:15:25;;;;;;;;;;;;;;;;;;5054729;28;20290;-59
2023/04/11 16:17:51;;;;;;;;;;;;;;;;;;5054928;28;20004;-60
2023/04/11 16:20:18;;;;;;;;;;;;;;;;;;5054128;28;20011;-59
2023/04/11 16:22:45;;;;;;;;;;;;;;;;;;5054522;28;19929;-59
2023/04/11 16:25:11;;;;;;;;;;;;;;;;;;5054528;28;19983;-59
2023/04/11 16:27:37;;;;;;;;;;;;;;;;;;5054275;28;20351;-59
2023/04/11 16:30:04;;;;;;;;;;;;;;;;;;5054559;28;19929;-59
2023/04/11 16:32:30;;;;;;;;;;;;;;;;;;5053178;28;20052;-59
2023/04/11 16:34:56;;;;;;;;;;;;;;;;;;5054008;28;20354;-59
2023/04/11 16:37:22;;;;;;;;;;;;;;;;;;5054489;28;20020;-59